Time;durP1;ratioP1;P1;durP2;ratioP2;P2;SDS_P1;SDS_P2;PMS_P1;PMS_P2;Temp;Humidity;BMP_temperature;BMP_pressure;BME280_temperature;BME280_humidity;BME280_pressure;Samples;Min_cycle;Max_cycle;Signal;HPM_P1;HPM_P2
2022/07/08 00:01:45;;;;;;;1.75;0.30;;;13.50;99.90;;;;;;5075927;28;20052;-71
2022/07/08 00:04:11;;;;;;;0.00;0.00;;;13.50;99.90;;;;;;5057632;28;20483;-71
2022/07/08 00:06:36;;;;;;;4.85;1.35;;;13.50;99.90;;;;;;5075493;28;20131;-72
2022/07/08 00:09:03;;;;;;;0.00;0.00;;;13.50;99.90;;;;;;5075344;28;20059;-72
2022/07/08 00:11:28;;;;;;;0.00;0.00;;;13.50;99.90;;;;;;5057511;28;20048;-72
2022/07/08 00:13:54;;;;;;;0.40;0.10;;;13.50;99.90;;;;;;5075914;28;20033;-72
2022/07/08 00:16:20;;;;;;;0.22;0.22;;;13.50;99.90;;;;;;5075223;28;20040;-72
2022/07/08 00:18:45;;;;;;;0.08;0.08;;;13.40;99.90;;;;;;5075343;28;20120;-71
2022/07/08 00:21:11;;;;;;;0.08;0.08;;;13.40;99.90;;;;;;5075251;28;20040;-72
2022/07/08 00:23:36;;;;;;;0.25;0.25;;;13.30;99.90;;;;;;5075151;28;20525;-72
2022/07/08 00:26:02;;;;;;;0.55;0.25;;;13.30;99.90;;;;;;5075311;28;20402;-72
2022/07/08 00:28:27;;;;;;;0.00;0.00;;;13.20;99.90;;;;;;5075145;28;20410;-72
2022/07/08 00:30:53;;;;;;;0.00;0.00;;;13.10;99.90;;;;;;5075327;28;20043;-72
2022/07/08 00:33:18;;;;;;;0.00;0.00;;;13.20;99.90;;;;;;5075194;28;20174;-72
2022/07/08 00:35:44;;;;;;;0.00;0.00;;;13.20;99.90;;;;;;5075017;28;20036;-72
2022/07/08 00:38:09;;;;;;;0.25;0.22;;;13.40;99.90;;;;;;5056707;28;20036;-72
2022/07/08 00:40:35;;;;;;;0.00;0.00;;;13.30;99.90;;;;;;5075156;28;20071;-71
2022/07/08 00:43:01;;;;;;;0.98;0.47;;;13.20;99.90;;;;;;5075187;28;20072;-71
2022/07/08 00:45:26;;;;;;;0.00;0.00;;;13.20;99.90;;;;;;5074846;28;20044;-72
2022/07/08 00:47:52;;;;;;;0.05;0.05;;;13.20;99.90;;;;;;5074799;28;20052;-70
2022/07/08 00:50:18;;;;;;;0.00;0.00;;;13.10;99.90;;;;;;5074843;28;20049;-71
2022/07/08 00:52:45;;;;;;;0.00;0.00;;;13.10;99.90;;;;;;5074458;28;20048;-72
2022/07/08 00:55:11;;;;;;;0.20;0.20;;;13.10;99.90;;;;;;5074533;28;20491;-71
2022/07/08 00:57:38;;;;;;;0.20;0.20;;;13.00;99.90;;;;;;5074137;28;20078;-71
2022/07/08 01:00:05;;;;;;;3.15;0.98;;;12.90;99.90;;;;;;5074573;28;20036;-72
2022/07/08 01:02:31;;;;;;;0.05;0.05;;;12.70;99.90;;;;;;5074107;28;20044;-72
2022/07/08 01:04:56;;;;;;;0.00;0.00;;;12.50;99.90;;;;;;5074518;28;20094;-71
2022/07/08 01:07:23;;;;;;;0.00;0.00;;;12.40;99.90;;;;;;5074000;28;20442;-71
2022/07/08 01:09:49;;;;;;;0.00;0.00;;;12.30;99.90;;;;;;5074074;28;20552;-72
2022/07/08 01:12:14;;;;;;;0.20;0.10;;;12.20;99.90;;;;;;5074199;28;20036;-72
2022/07/08 01:14:40;;;;;;;0.00;0.00;;;12.30;99.90;;;;;;5074083;28;20147;-71
2022/07/08 01:17:06;;;;;;;0.13;0.05;;;12.40;99.90;;;;;;5073741;28;20064;-73
2022/07/08 01:19:35;;;;;;;0.03;0.00;;;12.40;99.90;;;;;;5056105;28;20055;-72
2022/07/08 01:22:00;;;;;;;0.10;0.00;;;12.30;99.90;;;;;;5073699;28;20398;-72
2022/07/08 01:24:26;;;;;;;2.38;0.60;;;12.30;99.90;;;;;;5073710;28;20047;-72
2022/07/08 01:26:52;;;;;;;0.00;0.00;;;12.20;99.90;;;;;;5073896;28;20117;-72
2022/07/08 01:29:18;;;;;;;0.00;0.00;;;12.10;99.90;;;;;;5073898;28;20407;-72
2022/07/08 01:31:43;;;;;;;0.22;0.20;;;12.00;99.90;;;;;;5073735;28;20399;-72
2022/07/08 01:34:09;;;;;;;0.00;0.00;;;11.90;99.90;;;;;;5073741;28;20094;-72
2022/07/08 01:36:35;;;;;;;1.50;0.40;;;11.80;99.90;;;;;;5055404;28;20123;-72
2022/07/08 01:39:00;;;;;;;0.00;0.00;;;11.80;99.90;;;;;;5073906;28;20050;-72
2022/07/08 01:41:26;;;;;;;0.00;0.00;;;11.80;99.90;;;;;;5074100;28;20119;-71
2022/07/08 01:43:52;;;;;;;0.00;0.00;;;11.80;99.90;;;;;;5073815;28;20040;-72
2022/07/08 01:46:17;;;;;;;0.08;0.05;;;11.70;99.90;;;;;;5073589;28;20414;-72
2022/07/08 01:48:43;;;;;;;0.00;0.00;;;11.70;99.90;;;;;;5073638;28;20048;-72
2022/07/08 01:51:08;;;;;;;0.35;0.10;;;11.60;99.90;;;;;;5073851;28;20501;-72
2022/07/08 01:53:34;;;;;;;0.00;0.00;;;11.60;99.90;;;;;;5055961;28;20040;-72
2022/07/08 01:56:00;;;;;;;0.00;0.00;;;11.60;99.90;;;;;;5074107;28;20044;-72
2022/07/08 01:58:25;;;;;;;6.78;1.20;;;11.70;99.90;;;;;;5055442;28;20052;-72
2022/07/08 02:00:51;;;;;;;0.10;0.10;;;11.80;99.90;;;;;;5073549;28;20098;-72
2022/07/08 02:03:17;;;;;;;0.05;0.03;;;11.70;99.90;;;;;;5073612;28;20543;-72
2022/07/08 02:05:42;;;;;;;0.75;0.55;;;11.80;99.90;;;;;;5073554;28;20083;-72
2022/07/08 02:08:08;;;;;;;0.00;0.00;;;11.80;99.90;;;;;;5073673;28;20178;-72
2022/07/08 02:13:18;;;;;;;0.00;0.00;;;11.70;99.90;;;;;;5073467;28;20041;-72
2022/07/08 02:15:45;;;;;;;0.10;0.10;;;11.60;99.90;;;;;;5073548;28;20037;-72
2022/07/08 02:18:11;;;;;;;0.00;0.00;;;11.50;99.90;;;;;;5073120;28;20479;-72
2022/07/08 02:20:36;;;;;;;0.00;0.00;;;11.40;99.90;;;;;;5073675;28;20045;-72
2022/07/08 02:23:02;;;;;;;0.00;0.00;;;11.30;99.90;;;;;;5073293;28;20127;-72
2022/07/08 02:25:28;;;;;;;0.00;0.00;;;11.20;99.90;;;;;;5073288;28;20084;-72
2022/07/08 02:27:53;;;;;;;0.32;0.20;;;11.10;99.90;;;;;;5073167;28;20044;-72
2022/07/08 02:30:19;;;;;;;0.00;0.00;;;11.10;99.90;;;;;;5073519;28;20043;-72
2022/07/08 02:32:45;;;;;;;0.45;0.03;;;11.00;99.90;;;;;;5073134;28;20041;-72
2022/07/08 02:35:11;;;;;;;0.00;0.00;;;10.90;99.90;;;;;;5055331;28;20181;-72
2022/07/08 02:37:36;;;;;;;0.00;0.00;;;10.80;99.90;;;;;;5073181;28;20044;-72
2022/07/08 02:40:02;;;;;;;0.90;0.15;;;10.70;99.90;;;;;;5073408;28;20033;-70
2022/07/08 02:42:29;;;;;;;0.00;0.00;;;10.70;99.90;;;;;;5073295;28;20410;-72
2022/07/08 02:44:55;;;;;;;0.00;0.00;;;10.70;99.90;;;;;;5073161;28;20055;-72
2022/07/08 02:47:21;;;;;;;0.00;0.00;;;10.70;99.90;;;;;;5073558;28;20045;-72
2022/07/08 02:49:46;;;;;;;2.60;0.65;;;10.70;99.90;;;;;;5077450;28;20041;-72
2022/07/08 02:52:12;;;;;;;0.00;0.00;;;10.70;99.90;;;;;;5077230;28;20082;-72
2022/07/08 02:54:38;;;;;;;2.40;0.38;;;10.60;99.90;;;;;;5077042;28;20048;-72
2022/07/08 02:57:03;;;;;;;0.15;0.15;;;10.60;99.90;;;;;;5076825;28;20045;-73
2022/07/08 02:59:29;;;;;;;0.00;0.00;;;10.70;99.90;;;;;;5077032;28;20055;-72
2022/07/08 03:01:55;;;;;;;0.00;0.00;;;10.70;99.90;;;;;;5076693;28;20128;-72
2022/07/08 03:04:20;;;;;;;0.30;0.25;;;11.00;99.90;;;;;;5076968;28;20047;-72
2022/07/08 03:06:46;;;;;;;0.00;0.00;;;10.70;99.90;;;;;;5076920;28;20080;-72
2022/07/08 03:09:11;;;;;;;0.00;0.00;;;10.80;99.90;;;;;;5076869;28;20040;-72
2022/07/08 03:11:37;;;;;;;0.00;0.00;;;10.80;99.90;;;;;;5076857;28;20494;-72
2022/07/08 03:14:02;;;;;;;0.30;0.30;;;10.80;99.90;;;;;;5076707;28;20084;-72
2022/07/08 03:16:28;;;;;;;9.52;0.22;;;11.00;99.90;;;;;;5076500;28;20048;-72
2022/07/08 03:18:54;;;;;;;0.00;0.00;;;10.90;99.90;;;;;;5076815;28;20047;-71
2022/07/08 03:21:19;;;;;;;0.10;0.10;;;11.00;99.90;;;;;;5076602;28;20049;-72
2022/07/08 03:23:45;;;;;;;0.00;0.00;;;11.10;99.90;;;;;;5076676;28;20067;-72
2022/07/08 03:26:10;;;;;;;0.38;0.15;;;11.20;99.90;;;;;;5076540;28;20040;-72
2022/07/08 03:28:36;;;;;;;0.13;0.03;;;11.20;99.90;;;;;;5076437;28;20501;-72
2022/07/08 03:31:01;;;;;;;0.00;0.00;;;11.20;99.90;;;;;;5076658;28;20563;-72
2022/07/08 03:33:27;;;;;;;0.65;0.35;;;11.10;99.90;;;;;;5076573;28;20036;-73
2022/07/08 03:35:53;;;;;;;0.17;0.17;;;11.00;99.90;;;;;;5076386;28;20076;-73
2022/07/08 03:38:18;;;;;;;0.17;0.17;;;10.90;99.90;;;;;;5076096;28;20402;-73
2022/07/08 03:43:28;;;;;;;0.00;0.00;;;10.80;99.90;;;;;;5058560;28;20135;-73
2022/07/08 03:45:54;;;;;;;0.00;0.00;;;10.80;99.90;;;;;;5076307;28;20115;-73
2022/07/08 03:48:19;;;;;;;0.00;0.00;;;11.80;99.90;;;;;;5076053;28;20055;-71
2022/07/08 03:50:45;;;;;;;1.33;0.52;;;10.70;99.90;;;;;;5076140;28;20068;-71
2022/07/08 03:53:10;;;;;;;0.00;0.00;;;10.70;99.90;;;;;;5075959;28;20044;-71
2022/07/08 03:55:36;;;;;;;0.00;0.00;;;10.70;99.90;;;;;;5075956;28;20123;-71
2022/07/08 03:58:02;;;;;;;3.38;0.65;;;10.70;99.90;;;;;;5074859;28;20057;-71
2022/07/08 04:00:27;;;;;;;0.00;0.00;;;10.70;99.90;;;;;;5076200;28;20045;-71
2022/07/08 04:02:53;;;;;;;0.00;0.00;;;10.70;99.90;;;;;;5075642;28;20075;-71
2022/07/08 04:05:19;;;;;;;0.32;0.20;;;10.70;99.90;;;;;;5075875;28;20051;-71
2022/07/08 04:07:44;;;;;;;0.00;0.00;;;10.70;99.90;;;;;;5075499;28;20044;-71
2022/07/08 04:10:10;;;;;;;0.25;0.20;;;10.70;99.90;;;;;;5075612;28;20450;-70
2022/07/08 04:12:35;;;;;;;0.00;0.00;;;10.70;99.90;;;;;;5075452;28;20075;-71
2022/07/08 04:15:02;;;;;;;0.00;0.00;;;10.80;99.90;;;;;;5075615;28;20045;-71
2022/07/08 04:17:27;;;;;;;0.00;0.00;;;10.90;99.90;;;;;;5075348;28;20040;-71
2022/07/08 04:19:53;;;;;;;0.00;0.00;;;10.90;99.90;;;;;;5075445;28;20040;-71
2022/07/08 04:22:18;;;;;;;0.00;0.00;;;10.90;99.90;;;;;;5075366;28;20048;-71
2022/07/08 04:24:44;;;;;;;1.67;0.35;;;11.10;99.90;;;;;;5075325;28;20497;-71
2022/07/08 04:27:10;;;;;;;4.28;1.17;;;11.30;99.90;;;;;;5075167;28;20040;-72
2022/07/08 04:29:35;;;;;;;0.13;0.13;;;11.40;99.90;;;;;;5075417;28;20045;-71
2022/07/08 04:32:01;;;;;;;0.10;0.10;;;11.50;99.90;;;;;;5075104;28;20045;-71
2022/07/08 04:34:26;;;;;;;1.35;0.43;;;11.50;99.90;;;;;;5072020;28;20512;-72
2022/07/08 04:36:52;;;;;;;0.13;0.13;;;11.50;99.90;;;;;;5075177;28;20061;-72
2022/07/08 04:39:17;;;;;;;0.08;0.08;;;11.70;99.90;;;;;;5075121;28;20040;-72
2022/07/08 04:41:43;;;;;;;0.05;0.05;;;11.80;99.90;;;;;;5074849;28;20052;-73
2022/07/08 04:44:08;;;;;;;3.97;0.90;;;11.90;99.90;;;;;;5075284;28;20504;-72
2022/07/08 04:46:34;;;;;;;0.03;0.03;;;12.00;99.90;;;;;;5075021;28;20048;-73
2022/07/08 04:49:00;;;;;;;1.27;1.17;;;12.10;99.90;;;;;;5074964;28;20037;-72
2022/07/08 04:51:25;;;;;;;0.00;0.00;;;12.50;99.90;;;;;;5074733;28;20127;-72
2022/07/08 04:53:51;;;;;;;8.95;1.13;;;13.10;99.90;;;;;;5074649;28;20041;-72
2022/07/08 04:56:16;;;;;;;0.00;0.00;;;13.90;99.90;;;;;;5073245;28;20047;-72
2022/07/08 04:58:42;;;;;;;0.00;0.00;;;15.00;99.90;;;;;;5071179;28;20078;-72
2022/07/08 05:01:08;;;;;;;7.35;0.75;;;16.00;99.90;;;;;;5071974;28;20120;-72
2022/07/08 05:03:33;;;;;;;0.10;0.10;;;16.40;99.90;;;;;;5071885;28;20082;-72
2022/07/08 05:05:59;;;;;;;0.00;0.00;;;16.40;99.90;;;;;;5071413;28;20369;-73
2022/07/08 05:08:25;;;;;;;0.35;0.35;;;16.10;99.90;;;;;;5071503;28;20048;-73
2022/07/08 05:10:50;;;;;;;0.20;0.20;;;15.90;99.90;;;;;;5064830;28;20093;-73
2022/07/08 05:13:16;;;;;;;0.65;0.47;;;15.70;99.90;;;;;;5058633;28;20041;-73
2022/07/08 05:15:42;;;;;;;0.60;0.55;;;15.70;99.90;;;;;;5038502;28;20037;-73
2022/07/08 05:18:07;;;;;;;0.00;0.00;;;15.70;99.90;;;;;;5051585;28;20041;-73
2022/07/08 05:20:33;;;;;;;0.13;0.13;;;15.60;99.90;;;;;;5033966;28;20051;-73
2022/07/08 05:22:58;;;;;;;0.30;0.30;;;15.70;99.90;;;;;;5058025;28;20130;-73
2022/07/08 05:25:25;;;;;;;0.52;0.52;;;15.80;99.90;;;;;;5060027;28;20475;-72
2022/07/08 05:27:50;;;;;;;0.20;0.20;;;15.80;99.90;;;;;;5054617;28;20053;-73
2022/07/08 05:30:16;;;;;;;3.20;0.35;;;15.90;99.90;;;;;;5053499;28;20169;-73
2022/07/08 05:32:41;;;;;;;1.08;0.65;;;16.50;99.90;;;;;;5054103;28;20041;-73
2022/07/08 05:35:08;;;;;;;0.13;0.10;;;17.20;99.90;;;;;;5054489;28;20048;-73
2022/07/08 05:37:37;;;;;;;1.75;1.10;;;17.50;99.90;;;;;;5054132;28;20077;-73
2022/07/08 05:40:07;;;;;;;0.10;0.10;;;18.10;99.90;;;;;;5054427;28;20053;-73
2022/07/08 05:42:33;;;;;;;2.38;0.95;;;18.80;99.90;;;;;;5054570;28;20128;-73
2022/07/08 05:44:59;;;;;;;0.00;0.00;;;19.20;99.90;;;;;;5054301;28;20079;-73
2022/07/08 05:47:24;;;;;;;0.55;0.30;;;19.90;99.90;;;;;;5053924;28;20049;-73
2022/07/08 05:49:50;;;;;;;0.00;0.00;;;20.30;99.90;;;;;;5054203;28;20044;-73
2022/07/08 05:52:15;;;;;;;0.00;0.00;;;20.90;99.90;;;;;;5054061;28;20044;-73
2022/07/08 05:54:45;;;;;;;0.40;0.40;;;20.80;99.90;;;;;;5054206;28;20072;-73
2022/07/08 05:57:12;;;;;;;0.30;0.20;;;20.20;99.90;;;;;;5054052;28;20510;-71
2022/07/08 05:59:38;;;;;;;3.65;0.70;;;20.10;99.90;;;;;;5054099;28;20100;-72
2022/07/08 06:02:04;;;;;;;1.80;0.65;;;20.40;99.90;;;;;;5054006;28;20037;-72
2022/07/08 06:04:30;;;;;;;5.57;0.35;;;21.30;99.90;;;;;;5053832;28;20049;-71
2022/07/08 06:06:56;;;;;;;0.25;0.20;;;20.30;99.90;;;;;;5053922;28;20064;-72
2022/07/08 06:09:22;;;;;;;0.57;0.50;;;19.80;99.90;;;;;;5054092;28;20041;-71
2022/07/08 06:11:48;;;;;;;0.80;0.80;;;19.30;99.90;;;;;;5053977;28;20037;-72
2022/07/08 06:14:13;;;;;;;0.10;0.10;;;19.20;99.90;;;;;;5054094;28;20115;-72
2022/07/08 06:16:39;;;;;;;0.28;0.28;;;18.80;99.90;;;;;;5035499;28;20495;-72
2022/07/08 06:19:05;;;;;;;1.48;0.45;;;18.70;99.90;;;;;;5053938;28;20049;-71
2022/07/08 06:21:30;;;;;;;0.98;0.40;;;18.40;99.90;;;;;;5053522;28;20040;-72
2022/07/08 06:23:56;;;;;;;0.13;0.10;;;18.30;99.90;;;;;;5054019;28;20037;-70
2022/07/08 06:26:22;;;;;;;0.00;0.00;;;18.30;99.90;;;;;;5054090;28;20432;-73
2022/07/08 06:28:48;;;;;;;1.02;0.45;;;18.00;99.90;;;;;;5053892;28;20124;-73
2022/07/08 06:31:13;;;;;;;0.77;0.32;;;18.10;99.90;;;;;;5053802;28;20480;-73
2022/07/08 06:33:39;;;;;;;0.15;0.13;;;18.40;99.90;;;;;;5053702;28;20044;-73
2022/07/08 06:36:05;;;;;;;0.05;0.05;;;18.70;99.90;;;;;;5053766;28;20589;-73
2022/07/08 06:38:30;;;;;;;0.00;0.00;;;18.50;99.90;;;;;;5052943;28;20073;-73
2022/07/08 06:40:56;;;;;;;0.40;0.30;;;18.70;99.90;;;;;;5052650;28;20075;-73
2022/07/08 06:43:22;;;;;;;0.43;0.43;;;18.80;99.90;;;;;;5052855;28;20052;-73
2022/07/08 06:45:48;;;;;;;1.20;0.75;;;18.60;99.90;;;;;;5052906;28;20045;-73
2022/07/08 06:48:14;;;;;;;0.28;0.15;;;18.70;99.90;;;;;;5034567;28;20521;-73
2022/07/08 06:50:40;;;;;;;0.00;0.00;;;18.70;99.90;;;;;;5052655;28;20376;-73
2022/07/08 06:53:05;;;;;;;0.22;0.20;;;18.70;99.90;;;;;;5034641;28;20045;-73
2022/07/08 06:55:31;;;;;;;0.30;0.30;;;18.70;99.90;;;;;;5052694;28;20095;-73
2022/07/08 06:57:57;;;;;;;0.55;0.35;;;18.90;99.90;;;;;;5052782;28;20438;-73
2022/07/08 07:00:23;;;;;;;10.43;0.52;;;18.80;99.90;;;;;;5052396;28;20061;-73
2022/07/08 07:02:49;;;;;;;0.15;0.15;;;19.10;99.90;;;;;;5052619;28;20080;-73
2022/07/08 07:05:15;;;;;;;0.20;0.15;;;19.20;99.90;;;;;;5052642;28;20049;-73
2022/07/08 07:07:40;;;;;;;1.15;0.35;;;19.30;99.90;;;;;;5052150;28;20463;-73
2022/07/08 07:10:06;;;;;;;0.20;0.20;;;19.50;99.90;;;;;;5052813;28;20452;-73
2022/07/08 07:12:32;;;;;;;0.00;0.00;;;19.70;99.90;;;;;;5052474;28;20124;-73
2022/07/08 07:14:57;;;;;;;0.20;0.20;;;19.80;99.90;;;;;;5052556;28;20083;-74
2022/07/08 07:17:23;;;;;;;0.38;0.35;;;19.70;99.90;;;;;;5052287;28;20364;-71
2022/07/08 07:19:49;;;;;;;0.47;0.47;;;19.50;99.90;;;;;;5052233;28;20126;-71
2022/07/08 07:22:16;;;;;;;0.00;0.00;;;19.50;99.90;;;;;;5052198;28;20052;-73
2022/07/08 07:24:41;;;;;;;0.47;0.47;;;19.40;99.90;;;;;;5052512;28;20041;-73
2022/07/08 07:27:07;;;;;;;0.00;0.00;;;19.50;99.90;;;;;;5052341;28;20467;-73
2022/07/08 07:29:33;;;;;;;0.10;0.10;;;19.70;99.90;;;;;;5052496;28;20076;-73
2022/07/08 07:31:59;;;;;;;0.45;0.35;;;19.90;99.90;;;;;;5052263;28;20052;-74
2022/07/08 07:34:24;;;;;;;3.10;1.55;;;20.30;99.90;;;;;;5054316;28;20037;-73
2022/07/08 07:36:50;;;;;;;0.25;0.20;;;20.20;99.90;;;;;;5055738;28;20044;-74
2022/07/08 07:39:15;;;;;;;4.13;0.25;;;20.20;99.90;;;;;;5055795;28;20084;-73
2022/07/08 07:41:41;;;;;;;2.00;0.60;;;20.10;99.90;;;;;;5055181;28;20040;-74
2022/07/08 07:44:07;;;;;;;0.08;0.08;;;20.00;99.90;;;;;;5055850;28;20044;-73
2022/07/08 07:46:33;;;;;;;0.35;0.35;;;20.10;99.90;;;;;;5055640;28;20534;-73
2022/07/08 07:48:59;;;;;;;0.15;0.15;;;20.10;99.90;;;;;;5055236;28;20131;-74
2022/07/08 07:51:25;;;;;;;0.63;0.25;;;20.10;99.90;;;;;;5053164;28;20120;-74
2022/07/08 07:53:50;;;;;;;0.17;0.17;;;20.40;99.90;;;;;;5053396;28;20515;-74
2022/07/08 07:56:16;;;;;;;0.85;0.40;;;20.60;99.90;;;;;;5053200;28;20033;-74
2022/07/08 07:58:42;;;;;;;0.08;0.08;;;20.50;99.90;;;;;;5055632;28;20213;-74
2022/07/08 08:01:08;;;;;;;2.47;0.68;;;20.70;99.90;;;;;;5071831;28;20048;-74
2022/07/08 08:03:34;;;;;;;0.30;0.17;;;20.60;99.90;;;;;;5071697;28;20448;-73
2022/07/08 08:06:00;;;;;;;1.95;0.70;;;20.70;99.90;;;;;;5071952;28;20098;-74
2022/07/08 08:08:26;;;;;;;0.45;0.35;;;20.70;99.90;;;;;;5053410;28;20136;-73
2022/07/08 08:10:53;;;;;;;0.10;0.10;;;20.70;99.90;;;;;;5057487;28;20037;-73
2022/07/08 08:13:19;;;;;;;0.03;0.03;;;20.60;99.90;;;;;;5065172;28;20045;-74
2022/07/08 08:15:45;;;;;;;0.00;0.00;;;20.40;99.90;;;;;;5063750;28;20033;-73
2022/07/08 08:18:11;;;;;;;0.00;0.00;;;20.50;99.90;;;;;;5062477;28;20072;-73
2022/07/08 08:20:37;;;;;;;1.10;0.63;;;20.40;99.90;;;;;;5061532;28;20067;-73
2022/07/08 08:23:03;;;;;;;0.00;0.00;;;20.40;99.90;;;;;;5067339;28;20090;-73
2022/07/08 08:25:29;;;;;;;0.82;0.35;;;20.60;99.90;;;;;;5071618;28;20056;-73
2022/07/08 08:27:56;;;;;;;0.00;0.00;;;20.30;99.90;;;;;;5071342;28;20078;-73
2022/07/08 08:30:22;;;;;;;0.20;0.17;;;20.50;99.90;;;;;;5071231;28;20105;-73
2022/07/08 08:32:48;;;;;;;0.10;0.10;;;20.70;99.90;;;;;;5071055;28;20091;-73
2022/07/08 08:35:14;;;;;;;3.55;0.30;;;20.70;99.90;;;;;;5071069;28;20076;-73
2022/07/08 08:37:39;;;;;;;1.05;0.50;;;20.90;99.90;;;;;;5071052;28;20102;-73
2022/07/08 08:40:07;;;;;;;0.00;0.00;;;21.20;99.90;;;;;;5071425;28;20094;-73
2022/07/08 08:42:33;;;;;;;0.10;0.10;;;21.20;99.90;;;;;;5070584;28;20352;-73
2022/07/08 08:45:00;;;;;;;0.65;0.25;;;21.10;99.90;;;;;;5051832;28;20054;-74
2022/07/08 08:47:30;;;;;;;1.35;0.90;;;20.90;99.90;;;;;;5070859;28;20056;-73
2022/07/08 08:49:57;;;;;;;0.25;0.17;;;20.70;99.90;;;;;;5071143;28;20044;-74
2022/07/08 08:52:24;;;;;;;0.03;0.03;;;20.60;99.90;;;;;;5071789;28;20037;-73
2022/07/08 08:54:51;;;;;;;0.30;0.30;;;20.50;99.90;;;;;;5073749;28;20105;-73
2022/07/08 08:57:17;;;;;;;0.10;0.10;;;20.60;99.90;;;;;;5073614;28;20041;-73
2022/07/08 08:59:43;;;;;;;0.43;0.30;;;20.70;99.90;;;;;;5073541;28;20049;-73
2022/07/08 09:02:11;;;;;;;0.55;0.38;;;20.80;99.90;;;;;;5073492;28;20444;-73
2022/07/08 09:04:37;;;;;;;0.00;0.00;;;21.00;99.90;;;;;;5073810;28;20083;-74
2022/07/08 09:07:03;;;;;;;0.85;0.45;;;21.30;99.90;;;;;;5073490;28;20045;-73
2022/07/08 09:09:29;;;;;;;2.22;0.65;;;21.50;99.90;;;;;;5073556;28;20106;-73
2022/07/08 09:11:54;;;;;;;0.15;0.10;;;21.70;99.90;;;;;;5073828;28;20380;-73
2022/07/08 09:14:24;;;;;;;0.00;0.00;;;21.70;99.90;;;;;;5073336;28;20072;-73
2022/07/08 09:17:09;;;;;;;0.38;0.10;;;21.60;99.90;;;;;;5073335;28;20047;-73
2022/07/08 09:19:36;;;;;;;0.93;0.68;;;21.70;99.90;;;;;;5073521;28;20102;-73
2022/07/08 09:22:04;;;;;;;0.03;0.03;;;21.50;99.90;;;;;;5073452;28;20489;-73
2022/07/08 09:24:30;;;;;;;0.05;0.05;;;21.50;99.90;;;;;;5073308;28;20522;-73
2022/07/08 09:26:56;;;;;;;0.10;0.10;;;21.50;99.90;;;;;;5073319;28;20045;-73
2022/07/08 09:29:22;;;;;;;0.10;0.10;;;21.90;99.90;;;;;;5055251;28;20060;-73
2022/07/08 09:31:47;;;;;;;0.00;0.00;;;21.70;99.90;;;;;;5073485;28;20051;-73
2022/07/08 09:34:16;;;;;;;0.20;0.20;;;22.00;99.90;;;;;;5073420;28;20402;-73
2022/07/08 09:36:49;;;;;;;0.85;0.40;;;22.10;99.90;;;;;;5073128;28;20067;-73
2022/07/08 09:39:25;;;;;;;0.73;0.52;;;22.40;99.90;;;;;;5073066;28;20045;-73
2022/07/08 09:41:52;;;;;;;0.10;0.10;;;22.30;99.00;;;;;;5073188;28;20051;-73
2022/07/08 09:44:20;;;;;;;0.05;0.05;;;22.00;99.30;;;;;;5073327;28;20040;-73
2022/07/08 09:46:47;;;;;;;0.00;0.00;;;22.20;99.90;;;;;;5072942;28;20552;-74
2022/07/08 09:49:29;;;;;;;0.00;0.00;;;22.40;99.90;;;;;;5072864;28;20090;-73
2022/07/08 09:51:56;;;;;;;5.28;1.25;;;22.60;97.20;;;;;;5072820;28;20044;-73
2022/07/08 09:54:22;;;;;;;0.30;0.25;;;22.70;96.20;;;;;;5072680;28;20229;-74
2022/07/08 09:57:02;;;;;;;0.30;0.30;;;22.80;95.70;;;;;;5072650;28;20045;-73
2022/07/08 09:59:29;;;;;;;0.15;0.13;;;22.50;95.70;;;;;;5072611;28;20051;-74
2022/07/08 10:01:55;;;;;;;0.00;0.00;;;22.50;95.40;;;;;;5072875;28;20204;-73
2022/07/08 10:04:23;;;;;;;0.45;0.25;;;22.60;96.10;;;;;;5072796;28;20040;-73
2022/07/08 10:06:53;;;;;;;3.40;0.35;;;22.60;95.60;;;;;;5072537;28;20072;-73
2022/07/08 10:09:20;;;;;;;0.00;0.00;;;22.80;95.00;;;;;;5072805;28;20044;-73
2022/07/08 10:11:47;;;;;;;1.35;0.30;;;22.70;94.70;;;;;;5072860;28;20041;-73
2022/07/08 10:14:13;;;;;;;0.40;0.40;;;22.90;94.80;;;;;;5072809;28;20036;-73
2022/07/08 10:16:58;;;;;;;0.10;0.03;;;23.10;92.40;;;;;;5072624;28;20128;-73
2022/07/08 10:19:33;;;;;;;0.10;0.10;;;23.20;94.90;;;;;;5053853;28;20079;-71
2022/07/08 10:22:01;;;;;;;0.00;0.00;;;23.50;93.10;;;;;;5072503;28;20118;-72
2022/07/08 10:24:32;;;;;;;0.00;0.00;;;23.60;92.30;;;;;;5037804;28;20040;-72
2022/07/08 10:27:00;;;;;;;8.07;0.70;;;23.80;90.50;;;;;;5072554;28;20047;-72
2022/07/08 10:29:30;;;;;;;1.27;0.15;;;24.10;92.20;;;;;;5055132;28;20106;-72
2022/07/08 10:31:57;;;;;;;0.15;0.15;;;24.30;86.80;;;;;;5072357;28;20076;-72
2022/07/08 10:34:30;;;;;;;0.20;0.20;;;24.40;88.10;;;;;;5072516;28;20094;-72
2022/07/08 10:36:55;;;;;;;0.85;0.63;;;24.60;71.30;;;;;;5072457;28;20406;-73
2022/07/08 10:39:28;;;;;;;1.25;0.70;;;24.60;74.00;;;;;;5072416;28;20044;-73
2022/07/08 10:42:04;;;;;;;0.20;0.20;;;24.60;79.70;;;;;;5072444;28;20037;-73
2022/07/08 10:44:45;;;;;;;0.25;0.10;;;24.70;74.80;;;;;;5072411;28;20036;-72
2022/07/08 10:47:15;;;;;;;0.60;0.28;;;24.50;70.60;;;;;;5072045;28;20083;-72
2022/07/08 10:49:45;;;;;;;2.10;0.90;;;24.20;80.30;;;;;;5072081;28;20547;-73
2022/07/08 10:52:12;;;;;;;0.32;0.32;;;24.10;81.60;;;;;;5072149;28;20460;-73
2022/07/08 10:54:37;;;;;;;0.15;0.15;;;24.10;86.00;;;;;;5072104;28;20119;-73
2022/07/08 10:57:07;;;;;;;0.70;0.30;;;24.20;86.90;;;;;;5071237;28;20566;-73
2022/07/08 10:59:37;;;;;;;1.08;0.63;;;24.50;83.60;;;;;;5032117;28;20061;-72
2022/07/08 11:02:05;;;;;;;3.58;0.80;;;24.70;80.60;;;;;;5032097;28;20084;-72
2022/07/08 11:04:34;;;;;;;5.78;0.73;;;25.00;77.70;;;;;;5032144;28;20046;-72
2022/07/08 11:07:22;;;;;;;0.20;0.17;;;25.20;78.10;;;;;;5012415;28;20045;-73
2022/07/08 11:10:05;;;;;;;0.70;0.60;;;25.40;68.40;;;;;;5050081;28;20051;-73
2022/07/08 11:12:43;;;;;;;0.30;0.28;;;25.70;64.30;;;;;;5054239;28;20131;-73
2022/07/08 11:15:18;;;;;;;0.28;0.22;;;25.60;62.60;;;;;;5054820;28;20076;-73
2022/07/08 11:17:46;;;;;;;1.17;0.52;;;25.60;62.60;;;;;;5054639;28;20060;-72
2022/07/08 11:20:18;;;;;;;0.25;0.13;;;25.00;70.00;;;;;;5053057;28;20077;-72
2022/07/08 11:22:45;;;;;;;0.10;0.10;;;25.10;76.00;;;;;;5052723;28;20040;-72
2022/07/08 11:25:13;;;;;;;0.10;0.10;;;25.10;70.70;;;;;;5052566;28;20048;-72
2022/07/08 11:27:40;;;;;;;1.17;0.90;;;25.20;72.40;;;;;;5052289;28;20495;-72
2022/07/08 11:30:11;;;;;;;0.20;0.20;;;25.80;71.20;;;;;;5052273;28;20060;-73
2022/07/08 11:32:37;;;;;;;0.00;0.00;;;26.60;61.70;;;;;;5052462;28;20045;-72
2022/07/08 11:35:03;;;;;;;0.65;0.38;;;27.40;41.60;;;;;;5051586;28;20051;-72
2022/07/08 11:37:32;;;;;;;0.90;0.63;;;27.80;38.80;;;;;;5050909;28;20049;-72
2022/07/08 11:39:58;;;;;;;0.30;0.30;;;28.10;30.00;;;;;;5052245;28;20049;-72
2022/07/08 11:42:24;;;;;;;1.45;0.75;;;27.80;23.20;;;;;;5052006;28;20467;-72
2022/07/08 11:44:49;;;;;;;6.47;0.55;;;27.70;30.10;;;;;;5046069;28;20041;-73
2022/07/08 11:47:19;;;;;;;2.17;0.63;;;27.60;28.50;;;;;;5032187;28;20136;-73
2022/07/08 11:49:47;;;;;;;0.10;0.10;;;28.10;33.80;;;;;;5032470;28;20033;-73
2022/07/08 11:52:19;;;;;;;0.25;0.15;;;27.70;30.60;;;;;;5048072;28;20056;-72
2022/07/08 11:54:46;;;;;;;0.43;0.40;;;27.90;27.70;;;;;;5033191;28;20048;-72
2022/07/08 11:57:13;;;;;;;1.10;0.77;;;27.90;24.70;;;;;;5051769;28;20176;-72
2022/07/08 11:59:39;;;;;;;0.30;0.25;;;27.30;31.90;;;;;;5056496;28;20049;-72
2022/07/08 12:02:05;;;;;;;0.03;0.00;;;27.40;28.00;;;;;;5051665;28;20049;-72
2022/07/08 12:04:31;;;;;;;1.75;0.55;;;28.30;25.00;;;;;;5051485;28;20396;-73
2022/07/08 12:06:59;;;;;;;0.85;0.70;;;29.60;14.60;;;;;;5051629;28;20044;-73
2022/07/08 12:09:26;;;;;;;0.63;0.60;;;30.30;12.20;;;;;;5051477;28;20462;-73
2022/07/08 12:11:54;;;;;;;1.15;0.38;;;29.30;10.70;;;;;;5051279;28;20122;-73
2022/07/08 12:14:20;;;;;;;0.10;0.10;;;30.20;12.60;;;;;;5051825;28;20045;-72
2022/07/08 12:16:46;;;;;;;0.55;0.17;;;28.70;8.90;;;;;;5051776;28;20059;-72
2022/07/08 12:19:33;;;;;;;0.28;0.28;;;29.30;13.00;;;;;;5051051;28;20044;-73
2022/07/08 12:22:12;;;;;;;0.52;0.40;;;30.10;11.30;;;;;;5056546;28;20467;-73
2022/07/08 12:24:40;;;;;;;0.40;0.22;;;29.90;7.90;;;;;;5031695;28;20411;-72
2022/07/08 12:27:17;;;;;;;0.20;0.20;;;28.70;10.50;;;;;;5044300;28;20044;-72
2022/07/08 12:29:43;;;;;;;0.40;0.30;;;28.20;13.50;;;;;;5051282;28;20053;-73
2022/07/08 12:32:10;;;;;;;2.05;0.57;;;28.20;17.50;;;;;;5051268;28;20049;-73
2022/07/08 12:34:36;;;;;;;0.00;0.00;;;28.70;19.60;;;;;;5051132;28;20060;-72
2022/07/08 12:37:19;;;;;;;0.98;0.35;;;28.40;17.30;;;;;;5050173;28;20063;-73
2022/07/08 12:39:46;;;;;;;0.47;0.47;;;27.70;21.20;;;;;;5051391;28;20088;-72
2022/07/08 12:42:12;;;;;;;0.77;0.60;;;27.80;24.90;;;;;;5050996;28;20045;-73
2022/07/08 12:44:40;;;;;;;0.28;0.28;;;27.50;29.70;;;;;;5051142;28;20041;-72
2022/07/08 12:47:07;;;;;;;1.15;0.38;;;26.60;24.80;;;;;;5050796;28;20403;-72
2022/07/08 12:49:34;;;;;;;0.25;0.22;;;26.30;33.90;;;;;;5051465;28;20073;-72
2022/07/08 12:52:00;;;;;;;0.95;0.52;;;26.80;38.50;;;;;;5070604;28;20124;-72